createdAt,value
2023-03-13T00:01:44.819Z,5.20
2023-03-13T00:04:14.019Z,4.93
2023-03-13T00:06:45.775Z,3.60
2023-03-13T00:09:16.550Z,4.60
2023-03-13T00:11:45.769Z,4.33
2023-03-13T00:14:15.117Z,3.87
2023-03-13T00:16:44.473Z,4.33
2023-03-13T00:19:13.693Z,3.57
2023-03-13T00:21:43.734Z,4.67
2023-03-13T00:24:15.532Z,4.00
2023-03-13T00:26:44.736Z,2.93
2023-03-13T00:29:14.344Z,3.07
2023-03-13T00:31:43.846Z,4.83
2023-03-13T00:34:13.706Z,3.63
2023-03-13T00:36:42.873Z,4.33
2023-03-13T00:39:14.629Z,3.93
2023-03-13T00:41:43.959Z,3.60
2023-03-13T00:44:13.233Z,3.70
2023-03-13T00:46:42.654Z,5.07
2023-03-13T00:49:11.923Z,3.73
2023-03-13T00:51:41.453Z,3.53
2023-03-13T00:54:10.630Z,4.60
2023-03-13T00:56:42.417Z,4.27
2023-03-13T00:59:11.678Z,4.10
2023-03-13T01:01:40.975Z,3.83
2023-03-13T01:04:11.787Z,3.90
2023-03-13T01:06:43.202Z,3.60
2023-03-13T01:09:14.422Z,3.20
2023-03-13T01:11:47.691Z,4.00
2023-03-13T01:14:17.935Z,3.83
2023-03-13T01:16:47.132Z,3.43
2023-03-13T01:19:18.020Z,3.70
2023-03-13T01:21:48.532Z,3.80
2023-03-13T01:24:19.253Z,3.97
2023-03-13T01:26:51.256Z,3.93
2023-03-13T01:29:20.443Z,3.07
2023-03-13T01:31:50.410Z,4.47
2023-03-13T01:34:19.668Z,4.27
2023-03-13T01:36:51.172Z,3.43
2023-03-13T01:39:20.676Z,3.10
2023-03-13T01:41:52.820Z,3.20
2023-03-13T01:44:24.293Z,3.90
2023-03-13T01:46:54.626Z,3.27
2023-03-13T01:49:26.294Z,3.40
2023-03-13T01:52:06.832Z,3.90
2023-03-13T01:54:41.462Z,3.83
2023-03-13T01:57:16.631Z,3.27
2023-03-13T01:59:47.634Z,3.50
2023-03-13T02:02:17.396Z,3.70
2023-03-13T02:04:49.764Z,4.40
2023-03-13T02:07:21.051Z,3.40
2023-03-13T02:09:52.207Z,3.83
2023-03-13T02:12:26.991Z,3.37
2023-03-13T02:14:56.760Z,3.67
2023-03-13T02:17:26.520Z,3.53
2023-03-13T02:19:55.971Z,3.50
2023-03-13T02:22:28.587Z,3.87
2023-03-13T02:25:01.160Z,3.28
2023-03-13T02:27:33.069Z,3.10
2023-03-13T02:30:02.393Z,4.00
2023-03-13T02:32:33.150Z,3.60
2023-03-13T02:35:05.386Z,3.25
2023-03-13T02:37:35.720Z,3.17
2023-03-13T02:40:09.626Z,3.43
2023-03-13T02:45:11.826Z,4.30
2023-03-13T02:47:41.761Z,2.90
2023-03-13T02:50:11.946Z,3.57
2023-03-13T02:52:44.317Z,3.43
2023-03-13T02:55:18.340Z,3.77
2023-03-13T02:57:48.048Z,3.53
2023-03-13T03:00:20.860Z,3.37
2023-03-13T03:02:50.129Z,3.20
2023-03-13T03:05:19.417Z,3.57
2023-03-13T03:07:48.724Z,3.17
2023-03-13T03:10:18.857Z,2.67
2023-03-13T03:12:48.584Z,3.47
2023-03-13T03:15:21.063Z,3.43
2023-03-13T03:17:51.366Z,3.30
2023-03-13T03:20:20.582Z,3.50
2023-03-13T03:22:49.985Z,3.53
2023-03-13T03:25:19.225Z,3.40
2023-03-13T03:27:49.901Z,3.20
2023-03-13T03:30:22.465Z,4.03
2023-03-13T03:32:53.876Z,3.40
2023-03-13T03:35:25.288Z,3.13
2023-03-13T03:37:54.621Z,2.53
2023-03-13T03:40:24.060Z,3.33
2023-03-13T03:42:53.512Z,3.00
2023-03-13T03:45:25.745Z,3.63
2023-03-13T03:47:55.177Z,3.25
2023-03-13T03:50:24.675Z,4.33
2023-03-13T03:52:59.890Z,3.50
2023-03-13T03:55:29.664Z,3.23
2023-03-13T03:57:59.223Z,2.80
2023-03-13T04:00:51.203Z,2.87
2023-03-13T04:03:20.670Z,4.10
2023-03-13T04:05:50.005Z,2.83
2023-03-13T04:08:19.650Z,3.10
2023-03-13T04:10:48.977Z,3.43
2023-03-13T04:13:18.781Z,3.23
2023-03-13T04:15:50.756Z,3.07
2023-03-13T04:18:20.882Z,3.20
2023-03-13T04:20:50.182Z,4.33
2023-03-13T04:23:19.366Z,3.53
2023-03-13T04:25:48.677Z,3.53
2023-03-13T04:28:17.880Z,4.80
2023-03-13T04:30:47.133Z,2.87
2023-03-13T04:33:42.250Z,3.22
2023-03-13T04:36:20.692Z,2.87
2023-03-13T04:39:03.120Z,4.05
2023-03-13T04:42:07.790Z,2.97
2023-03-13T04:44:48.402Z,3.60
2023-03-13T04:47:38.812Z,3.50
2023-03-13T04:50:33.664Z,2.78
2023-03-13T04:53:25.364Z,2.87
2023-03-13T04:56:03.095Z,3.50
2023-03-13T04:58:46.552Z,3.13
2023-03-13T05:01:34.599Z,2.93
2023-03-13T05:04:35.727Z,2.63
2023-03-13T05:07:29.651Z,2.73
2023-03-13T05:10:29.852Z,2.50
2023-03-13T05:13:28.615Z,2.83
2023-03-13T05:16:02.367Z,3.60
2023-03-13T05:19:00.011Z,2.83
2023-03-13T05:21:45.373Z,3.07
2023-03-13T05:24:40.219Z,2.93
2023-03-13T05:27:20.796Z,3.03
2023-03-13T05:30:09.382Z,2.97
2023-03-13T05:33:10.729Z,2.93
2023-03-13T05:36:02.728Z,3.10
2023-03-13T05:38:44.254Z,2.70
2023-03-13T05:41:28.096Z,2.70
2023-03-13T05:44:02.936Z,2.53
2023-03-13T05:46:38.558Z,2.83
2023-03-13T05:49:19.502Z,3.03
2023-03-13T05:52:09.032Z,2.20
2023-03-13T05:54:50.679Z,2.90
2023-03-13T05:57:50.434Z,2.50
2023-03-13T06:00:25.495Z,2.20
2023-03-13T06:03:20.048Z,2.87
2023-03-13T06:05:51.763Z,2.27
2023-03-13T06:08:32.806Z,1.93
2023-03-13T06:11:03.378Z,2.37
2023-03-13T06:13:35.414Z,2.53
2023-03-13T06:16:12.321Z,1.60
2023-03-13T06:18:48.811Z,1.43
2023-03-13T06:21:18.295Z,1.80
2023-03-13T06:23:47.509Z,1.77
2023-03-13T06:26:16.704Z,2.20
2023-03-13T06:28:48.475Z,1.67
2023-03-13T06:31:17.702Z,1.77
2023-03-13T06:33:48.599Z,1.80
2023-03-13T06:36:18.827Z,2.15
2023-03-13T06:38:48.061Z,2.03
2023-03-13T06:41:17.486Z,1.70
2023-03-13T06:43:49.319Z,1.80
2023-03-13T06:46:20.593Z,1.30
2023-03-13T06:48:49.874Z,1.87
2023-03-13T06:51:20.498Z,2.10
2023-03-13T06:53:52.307Z,1.43
2023-03-13T06:56:21.825Z,1.65
2023-03-13T06:58:53.714Z,1.80
2023-03-13T07:01:23.013Z,1.80
2023-03-13T07:03:52.337Z,2.10
2023-03-13T07:06:24.294Z,2.03
2023-03-13T07:08:53.495Z,2.00
2023-03-13T07:11:22.768Z,1.47
2023-03-13T07:14:10.132Z,1.67
2023-03-13T07:16:44.812Z,1.42
2023-03-13T07:19:14.425Z,1.30
2023-03-13T07:21:44.271Z,1.70
2023-03-13T07:24:13.700Z,1.30
2023-03-13T07:26:54.501Z,1.57
2023-03-13T07:29:34.838Z,1.57
2023-03-13T07:32:04.125Z,1.80
2023-03-13T07:34:33.353Z,2.30
2023-03-13T07:37:02.548Z,1.20
2023-03-13T07:39:31.867Z,1.70
2023-03-13T07:42:01.290Z,2.17
2023-03-13T07:44:30.507Z,1.90
2023-03-13T07:47:04.519Z,1.60
2023-03-13T07:49:33.782Z,1.67
2023-03-13T07:52:02.998Z,1.37
2023-03-13T07:54:32.198Z,1.80
2023-03-13T07:57:01.526Z,1.60
2023-03-13T07:59:30.826Z,1.90
2023-03-13T08:02:00.077Z,1.67
2023-03-13T08:04:32.557Z,1.47
2023-03-13T08:07:02.389Z,2.43
2023-03-13T08:09:34.769Z,1.70
2023-03-13T08:12:05.421Z,1.80
2023-03-13T08:14:34.656Z,2.60
2023-03-13T08:17:03.927Z,1.43
2023-03-13T08:19:35.943Z,1.70
2023-03-13T08:22:05.710Z,1.75
2023-03-13T08:24:35.695Z,1.80
2023-03-13T08:27:04.935Z,1.77
2023-03-13T08:29:34.335Z,1.90
2023-03-13T08:32:03.568Z,1.83
2023-03-13T08:34:35.217Z,1.80
2023-03-13T08:37:07.022Z,1.90
2023-03-13T08:39:36.491Z,1.70
2023-03-13T08:42:05.760Z,1.80
2023-03-13T08:44:34.945Z,1.90
2023-03-13T08:47:04.210Z,1.90
2023-03-13T08:49:33.377Z,1.90
2023-03-13T08:52:02.568Z,2.30
2023-03-13T08:54:34.338Z,2.20
2023-03-13T08:57:03.500Z,2.30
2023-03-13T08:59:32.789Z,2.00
2023-03-13T09:02:03.130Z,2.10
2023-03-13T09:04:32.350Z,2.10
2023-03-13T09:07:01.486Z,2.23
2023-03-13T09:09:30.694Z,2.40
2023-03-13T09:12:02.431Z,2.60
2023-03-13T09:14:31.608Z,2.22
2023-03-13T09:17:00.786Z,2.20
2023-03-13T09:19:29.931Z,2.03
2023-03-13T09:21:59.099Z,1.90
2023-03-13T09:24:28.664Z,2.10
2023-03-13T09:27:01.305Z,2.27
2023-03-13T09:29:33.450Z,2.70
2023-03-13T09:32:03.927Z,2.13
2023-03-13T09:34:33.164Z,2.03
2023-03-13T09:37:02.393Z,2.07
2023-03-13T09:39:31.541Z,1.90
2023-03-13T09:42:06.246Z,2.20
2023-03-13T09:44:41.606Z,2.07
2023-03-13T09:47:13.831Z,2.10
2023-03-13T09:49:44.086Z,2.13
2023-03-13T09:52:16.655Z,2.10
2023-03-13T09:54:48.842Z,1.95
2023-03-13T09:57:20.653Z,2.30
2023-03-13T09:59:55.885Z,2.15
2023-03-13T10:02:29.611Z,1.90
2023-03-13T10:05:00.985Z,1.97
2023-03-13T10:07:30.189Z,1.67
2023-03-13T10:09:59.358Z,1.90
2023-03-13T10:12:30.698Z,2.07
2023-03-13T10:15:10.710Z,2.20
2023-03-13T10:17:40.645Z,1.93
2023-03-13T10:20:16.328Z,1.70
2023-03-13T10:22:49.020Z,1.93
2023-03-13T10:27:49.829Z,2.13
2023-03-13T10:32:51.784Z,1.80
2023-03-13T10:35:24.542Z,1.85
2023-03-13T10:38:02.578Z,1.92
2023-03-13T10:40:32.219Z,2.00
2023-03-13T10:43:05.633Z,2.00
2023-03-13T10:45:36.215Z,2.40
2023-03-13T10:48:14.391Z,2.20
2023-03-13T10:50:45.313Z,1.80
2023-03-13T10:53:23.672Z,1.85
2023-03-13T10:55:54.872Z,1.80
2023-03-13T10:58:25.841Z,1.75
2023-03-13T11:00:55.009Z,2.22
2023-03-13T11:03:30.245Z,2.10
2023-03-13T11:06:00.962Z,1.70
2023-03-13T11:08:31.084Z,2.65
2023-03-13T11:11:01.969Z,2.10
2023-03-13T11:13:38.151Z,1.70
2023-03-13T11:16:11.919Z,1.85
2023-03-13T11:18:46.286Z,2.10
2023-03-13T11:21:20.257Z,2.47
2023-03-13T11:23:52.656Z,2.03
2023-03-13T11:26:25.689Z,2.28
2023-03-13T11:28:57.396Z,2.00
2023-03-13T11:31:31.014Z,2.10
2023-03-13T11:34:08.114Z,1.80
2023-03-13T11:36:38.049Z,1.92
2023-03-13T11:39:13.636Z,2.08
2023-03-13T11:41:52.362Z,2.00
2023-03-13T11:44:32.720Z,2.55
2023-03-13T11:47:21.642Z,2.70
2023-03-13T11:50:00.341Z,1.73
2023-03-13T11:52:37.842Z,2.10
2023-03-13T11:57:55.320Z,2.25
2023-03-13T12:00:27.556Z,1.77
2023-03-13T12:02:59.011Z,2.00
2023-03-13T12:05:31.770Z,1.85
2023-03-13T12:13:15.743Z,1.85
2023-03-13T12:39:17.272Z,1.60
2023-03-13T12:41:47.525Z,1.75
2023-03-13T12:44:18.980Z,1.60
2023-03-13T12:46:49.829Z,1.63
2023-03-13T12:52:42.640Z,1.60
2023-03-13T12:55:26.853Z,1.63
2023-03-13T15:15:22.856Z,1.00
2023-03-13T15:17:52.062Z,1.20
2023-03-13T16:08:04.817Z,1.50
2023-03-13T16:15:34.862Z,1.00
2023-03-13T16:18:04.567Z,0.98
2023-03-13T16:43:14.326Z,1.10
2023-03-13T16:45:43.660Z,0.90
2023-03-13T16:48:16.609Z,1.20
2023-03-13T16:50:46.862Z,0.80
2023-03-13T16:53:18.678Z,1.25
2023-03-13T16:55:47.909Z,0.90
2023-03-13T16:58:17.114Z,1.13
2023-03-13T17:00:59.290Z,1.00
2023-03-13T17:03:33.933Z,0.80
2023-03-13T17:06:03.140Z,1.20
2023-03-13T17:08:34.955Z,1.00
2023-03-13T17:11:04.251Z,1.15
2023-03-13T17:13:33.515Z,1.30
2023-03-13T17:16:02.804Z,1.10
2023-03-13T17:18:32.051Z,1.20
2023-03-13T17:21:01.344Z,1.55
2023-03-13T17:23:30.975Z,1.20
2023-03-13T17:26:03.208Z,1.02
2023-03-13T17:28:33.301Z,1.20
2023-03-13T17:31:02.534Z,1.20
2023-03-13T17:33:31.741Z,1.30
2023-03-13T17:36:01.065Z,1.70
2023-03-13T17:38:30.267Z,1.30
2023-03-13T17:40:59.560Z,1.10
2023-03-13T17:43:31.379Z,1.20
2023-03-13T17:46:00.566Z,1.15
2023-03-13T17:48:29.802Z,1.23
2023-03-13T17:50:58.987Z,1.20
2023-03-13T17:53:28.189Z,1.50
2023-03-13T17:55:57.390Z,0.95
2023-03-13T17:58:26.563Z,1.13
2023-03-13T18:00:58.348Z,1.30
2023-03-13T18:03:27.544Z,1.33
2023-03-13T18:05:56.787Z,1.35
2023-03-13T18:08:25.959Z,1.13
2023-03-13T18:10:55.194Z,1.40
2023-03-13T18:13:24.447Z,1.30
2023-03-13T18:15:53.683Z,1.20
2023-03-13T18:18:25.477Z,1.17
2023-03-13T18:20:54.736Z,1.27
2023-03-13T18:23:23.921Z,1.30
2023-03-13T18:25:53.098Z,1.45
2023-03-13T18:28:22.295Z,1.30
2023-03-13T18:30:51.450Z,1.20
2023-03-13T18:33:20.628Z,1.33
2023-03-13T18:35:52.442Z,2.15
2023-03-13T18:38:23.901Z,2.10
2023-03-13T18:40:53.113Z,1.50
2023-03-13T18:43:22.296Z,1.60
2023-03-13T18:45:51.474Z,1.60
2023-03-13T18:48:20.704Z,1.63
2023-03-13T18:50:52.471Z,1.40
2023-03-13T18:53:21.660Z,1.93
2023-03-13T18:55:50.819Z,1.45
2023-03-13T18:58:19.998Z,1.67
2023-03-13T19:00:49.302Z,1.42
2023-03-13T19:03:20.504Z,1.40
2023-03-13T19:05:52.267Z,1.37
2023-03-13T19:08:21.488Z,1.50
2023-03-13T19:10:50.729Z,1.15
2023-03-13T19:13:19.993Z,1.45
2023-03-13T19:15:49.196Z,1.50
2023-03-13T19:18:18.562Z,1.13
2023-03-13T19:20:47.768Z,2.10
2023-03-13T19:23:19.521Z,1.80
2023-03-13T19:25:48.696Z,1.90
2023-03-13T19:28:17.924Z,1.55
2023-03-13T19:30:47.687Z,2.07
2023-03-13T19:33:16.858Z,1.80
2023-03-13T19:38:15.584Z,2.33
2023-03-13T19:40:47.389Z,1.70
2023-03-13T19:43:16.571Z,1.60
2023-03-13T19:45:45.853Z,1.50
2023-03-13T19:48:15.084Z,1.40
2023-03-13T19:50:45.241Z,1.80
2023-03-13T19:53:14.420Z,1.60
2023-03-13T19:55:43.726Z,1.77
2023-03-13T19:58:15.753Z,1.73
2023-03-13T20:00:44.955Z,1.63
2023-03-13T20:03:14.248Z,1.80
2023-03-13T20:05:43.431Z,1.57
2023-03-13T20:08:12.583Z,1.70
2023-03-13T20:10:41.761Z,1.90
2023-03-13T20:13:10.953Z,1.60
2023-03-13T20:15:42.806Z,1.80
2023-03-13T20:18:12.020Z,1.75
2023-03-13T20:20:41.236Z,1.50
2023-03-13T20:23:10.417Z,1.97
2023-03-13T20:25:39.619Z,1.60
2023-03-13T20:28:08.800Z,1.83
2023-03-13T20:30:41.047Z,2.10
2023-03-13T20:33:13.041Z,1.50
2023-03-13T20:35:42.463Z,1.60
2023-03-13T20:38:11.992Z,1.80
2023-03-13T20:40:41.189Z,1.80
2023-03-13T20:43:10.390Z,2.00
2023-03-13T20:45:39.820Z,1.80
2023-03-13T20:48:09.457Z,1.77
2023-03-13T20:50:41.242Z,2.17
2023-03-13T20:53:10.513Z,1.50
2023-03-13T20:55:40.147Z,1.90
2023-03-13T20:58:09.330Z,1.97
2023-03-13T21:00:38.728Z,1.83
2023-03-13T21:03:07.951Z,1.60
2023-03-13T21:05:43.422Z,1.80
2023-03-13T21:08:13.492Z,1.90
2023-03-13T21:10:43.737Z,2.33
2023-03-13T21:13:13.244Z,1.70
2023-03-13T21:15:43.095Z,1.73
2023-03-13T21:18:12.660Z,1.90
2023-03-13T21:20:44.490Z,1.80
2023-03-13T21:23:13.706Z,2.30
2023-03-13T21:25:42.940Z,1.77
2023-03-13T21:28:12.332Z,1.80
2023-03-13T21:30:41.489Z,1.97
2023-03-13T21:33:10.741Z,2.20
2023-03-13T21:35:39.952Z,2.27
2023-03-13T21:38:11.842Z,1.73
2023-03-13T21:40:41.978Z,2.47
2023-03-13T21:43:11.447Z,2.17
2023-03-13T21:45:40.682Z,2.30
2023-03-13T21:48:09.870Z,1.90
2023-03-13T21:50:39.190Z,2.30
2023-03-13T21:53:08.384Z,2.00
2023-03-13T21:55:40.282Z,2.63
2023-03-13T21:58:09.447Z,2.03
2023-03-13T22:00:38.627Z,2.20
2023-03-13T22:03:07.834Z,2.10
2023-03-13T22:05:39.020Z,2.03
2023-03-13T22:08:08.182Z,2.63
2023-03-13T22:10:40.478Z,2.00
2023-03-13T22:13:10.329Z,1.95
2023-03-13T22:15:39.484Z,2.10
2023-03-13T22:18:08.721Z,1.93
2023-03-13T22:20:37.881Z,2.30
2023-03-13T22:23:07.236Z,2.10
2023-03-13T22:25:36.387Z,2.10
2023-03-13T22:28:08.141Z,2.13
2023-03-13T22:30:37.592Z,2.70
2023-03-13T22:33:06.861Z,2.10
2023-03-13T22:35:36.173Z,2.00
2023-03-13T22:38:05.414Z,1.80
2023-03-13T22:40:34.872Z,2.30
2023-03-13T22:43:04.081Z,2.20
2023-03-13T22:45:36.389Z,2.00
2023-03-13T22:48:06.705Z,2.03
2023-03-13T22:50:36.158Z,2.00
2023-03-13T22:53:05.591Z,2.03
2023-03-13T22:55:35.116Z,2.07
2023-03-13T22:58:05.560Z,1.70
2023-03-13T23:00:37.321Z,1.80
2023-03-13T23:03:06.548Z,2.10
2023-03-13T23:05:39.279Z,1.90
2023-03-13T23:10:37.662Z,1.97
2023-03-13T23:13:07.198Z,2.33
2023-03-13T23:15:55.353Z,2.10
2023-03-13T23:18:25.406Z,1.77
2023-03-13T23:20:54.839Z,2.00
2023-03-13T23:23:23.992Z,1.77
2023-03-13T23:25:53.326Z,1.87
2023-03-13T23:28:22.537Z,2.00
2023-03-13T23:30:54.309Z,2.23
2023-03-13T23:33:23.549Z,2.70
2023-03-13T23:35:52.728Z,3.33
2023-03-13T23:38:24.009Z,1.90
2023-03-13T23:40:53.180Z,2.33
2023-03-13T23:43:22.362Z,1.93
2023-03-13T23:45:54.138Z,3.37
2023-03-13T23:48:23.304Z,2.50
2023-03-13T23:50:52.473Z,2.73
2023-03-13T23:53:21.665Z,2.00
2023-03-13T23:55:50.874Z,2.43
2023-03-13T23:58:20.015Z,2.67
